createdAt,value
2022-12-01T00:01:19.374Z,12.55
2022-12-01T00:03:46.301Z,11.73
2022-12-01T00:06:16.214Z,12.00
2022-12-01T00:09:03.206Z,12.35
2022-12-01T00:11:30.230Z,12.00
2022-12-01T00:13:57.155Z,12.63
2022-12-01T00:16:24.127Z,11.90
2022-12-01T00:18:52.534Z,12.10
2022-12-01T00:21:21.734Z,12.10
2022-12-01T00:23:51.007Z,11.93
2022-12-01T00:26:19.767Z,11.82
2022-12-01T00:28:51.546Z,12.18
2022-12-01T00:31:18.990Z,11.98
2022-12-01T00:33:45.952Z,12.40
2022-12-01T00:36:12.845Z,12.27
2022-12-01T00:38:39.874Z,11.35
2022-12-01T00:41:06.861Z,11.98
2022-12-01T00:43:33.792Z,11.80
2022-12-01T00:46:00.933Z,11.10
2022-12-01T00:48:27.898Z,11.75
2022-12-01T00:50:55.735Z,11.40
2022-12-01T00:53:23.503Z,12.45
2022-12-01T00:55:50.476Z,11.80
2022-12-01T00:58:17.386Z,12.52
2022-12-01T01:00:44.234Z,12.10
2022-12-01T01:03:11.616Z,12.20
2022-12-01T01:05:40.036Z,13.13
2022-12-01T01:08:14.967Z,11.77
2022-12-01T01:10:46.863Z,11.68
2022-12-01T01:13:15.212Z,11.85
2022-12-01T01:15:42.449Z,12.18
2022-12-01T01:18:12.248Z,11.90
2022-12-01T01:20:39.220Z,11.70
2022-12-01T01:23:06.124Z,10.95
2022-12-01T01:25:33.561Z,11.73
2022-12-01T01:28:00.440Z,12.20
2022-12-01T01:30:27.369Z,12.07
2022-12-01T01:32:54.267Z,12.63
2022-12-01T01:35:21.358Z,11.55
2022-12-01T01:37:50.060Z,12.25
2022-12-01T01:40:17.170Z,12.85
2022-12-01T01:42:44.021Z,12.32
2022-12-01T01:45:24.373Z,13.60
2022-12-01T01:47:53.793Z,13.25
2022-12-01T01:50:26.836Z,13.02
2022-12-01T01:53:02.350Z,12.77
2022-12-01T01:55:31.830Z,12.00
2022-12-01T01:57:59.428Z,12.43
2022-12-01T02:00:26.442Z,12.18
2022-12-01T02:02:54.244Z,12.60
2022-12-01T02:05:22.900Z,12.85
2022-12-01T02:07:53.380Z,12.35
2022-12-01T02:10:22.781Z,12.27
2022-12-01T02:13:27.238Z,12.30
2022-12-01T02:16:12.571Z,12.45
2022-12-01T02:19:01.302Z,14.38
2022-12-01T02:21:52.155Z,13.70
2022-12-01T02:24:46.661Z,12.93
2022-12-01T02:27:34.014Z,13.55
2022-12-01T02:30:08.310Z,13.00
2022-12-01T02:33:13.796Z,13.30
2022-12-01T02:35:46.550Z,13.32
2022-12-01T02:38:25.283Z,14.73
2022-12-01T02:41:16.829Z,13.75
2022-12-01T02:44:10.883Z,12.85
2022-12-01T02:46:42.177Z,13.65
2022-12-01T02:49:14.525Z,14.38
2022-12-01T02:51:47.082Z,14.32
2022-12-01T02:54:15.654Z,16.48
2022-12-01T02:56:46.600Z,15.85
2022-12-01T02:59:14.949Z,15.43
2022-12-01T03:01:46.333Z,16.08
2022-12-01T03:04:57.556Z,16.88
2022-12-01T03:07:48.162Z,16.35
2022-12-01T03:10:20.744Z,15.75
2022-12-01T03:13:21.341Z,16.40
2022-12-01T03:16:00.113Z,16.67
2022-12-01T03:18:38.510Z,17.83
2022-12-01T03:21:21.661Z,17.70
2022-12-01T03:23:54.951Z,17.88
2022-12-01T03:26:24.505Z,19.25
2022-12-01T03:28:58.526Z,18.48
2022-12-01T03:31:31.802Z,18.67
2022-12-01T03:34:08.092Z,19.35
2022-12-01T03:36:50.573Z,19.13
2022-12-01T03:39:33.289Z,20.23
2022-12-01T03:42:06.371Z,18.05
2022-12-01T03:44:41.920Z,18.50
2022-12-01T03:47:13.942Z,19.27
2022-12-01T03:49:41.430Z,19.88
2022-12-01T03:52:28.382Z,19.65
2022-12-01T03:55:01.407Z,18.45
2022-12-01T03:57:50.277Z,18.70
2022-12-01T04:00:17.442Z,18.08
2022-12-01T04:02:48.897Z,18.40
2022-12-01T04:05:17.313Z,18.30
2022-12-01T04:07:45.804Z,18.15
2022-12-01T04:10:12.620Z,16.85
2022-12-01T04:12:39.454Z,17.83
2022-12-01T04:15:10.114Z,18.30
2022-12-01T04:17:37.131Z,18.75
2022-12-01T04:20:06.602Z,18.02
2022-12-01T04:22:34.137Z,18.45
2022-12-01T04:25:00.980Z,17.85
2022-12-01T04:27:27.898Z,18.08
2022-12-01T04:29:54.705Z,20.25
2022-12-01T04:32:21.655Z,18.42
2022-12-01T04:34:48.478Z,18.77
2022-12-01T04:37:17.017Z,17.88
2022-12-01T04:39:44.247Z,18.30
2022-12-01T04:42:11.378Z,18.95
2022-12-01T04:44:38.218Z,17.15
2022-12-01T04:47:06.394Z,18.25
2022-12-01T04:49:33.836Z,17.48
2022-12-01T04:52:00.651Z,17.63
2022-12-01T04:54:27.556Z,18.73
2022-12-01T04:56:54.383Z,17.95
2022-12-01T04:59:21.342Z,19.08
2022-12-01T05:01:48.450Z,19.13
2022-12-01T05:04:15.726Z,19.27
2022-12-01T05:06:43.219Z,18.33
2022-12-01T05:09:17.404Z,18.50
2022-12-01T05:11:45.093Z,18.95
2022-12-01T05:14:12.122Z,18.88
2022-12-01T05:16:39.096Z,16.85
2022-12-01T05:19:25.201Z,18.15
2022-12-01T05:21:55.054Z,18.23
2022-12-01T05:24:22.074Z,18.20
2022-12-01T05:26:48.979Z,18.92
2022-12-01T05:29:16.014Z,17.88
2022-12-01T05:31:42.984Z,18.42
2022-12-01T05:34:10.093Z,18.17
2022-12-01T05:36:36.957Z,17.17
2022-12-01T05:39:04.326Z,17.80
2022-12-01T05:41:31.136Z,17.13
2022-12-01T05:43:58.008Z,18.75
2022-12-01T05:46:24.964Z,19.20
2022-12-01T05:48:51.894Z,17.65
2022-12-01T05:51:18.764Z,17.50
2022-12-01T05:53:45.742Z,17.73
2022-12-01T05:56:12.908Z,17.73
2022-12-01T05:58:39.774Z,18.23
2022-12-01T06:01:06.846Z,16.90
2022-12-01T06:03:33.867Z,17.98
2022-12-01T06:06:00.985Z,18.70
2022-12-01T06:08:27.916Z,20.17
2022-12-01T06:10:54.746Z,19.90
2022-12-01T06:13:21.704Z,18.98
2022-12-01T06:16:03.220Z,17.42
2022-12-01T06:18:38.441Z,19.08
2022-12-01T06:21:06.626Z,17.98
2022-12-01T06:23:34.120Z,18.52
2022-12-01T06:26:01.140Z,19.58
2022-12-01T06:28:27.957Z,18.67
2022-12-01T06:30:59.467Z,18.70
2022-12-01T06:33:30.288Z,18.13
2022-12-01T06:35:59.127Z,18.13
2022-12-01T06:38:26.369Z,18.40
2022-12-01T06:40:53.229Z,18.23
2022-12-01T06:43:20.068Z,17.85
2022-12-01T06:45:46.990Z,20.85
2022-12-01T06:48:14.236Z,19.73
2022-12-01T06:50:41.268Z,19.17
2022-12-01T06:53:08.212Z,18.65
2022-12-01T06:55:35.976Z,18.38
2022-12-01T06:58:03.389Z,17.95
2022-12-01T07:00:30.891Z,17.17
2022-12-01T07:02:57.790Z,19.27
2022-12-01T07:05:24.615Z,18.40
2022-12-01T07:07:56.343Z,17.95
2022-12-01T07:10:26.152Z,19.23
2022-12-01T07:12:53.035Z,18.00
2022-12-01T07:15:19.924Z,17.50
2022-12-01T07:17:46.717Z,17.33
2022-12-01T07:20:13.756Z,17.63
2022-12-01T07:22:42.966Z,18.65
2022-12-01T07:25:09.969Z,18.80
2022-12-01T07:27:36.869Z,16.92
2022-12-01T07:30:04.294Z,17.27
2022-12-01T07:32:31.425Z,18.55
2022-12-01T07:34:58.325Z,17.60
2022-12-01T07:37:25.252Z,18.05
2022-12-01T07:39:52.298Z,16.92
2022-12-01T07:42:19.137Z,16.23
2022-12-01T07:44:46.011Z,18.40
2022-12-01T07:47:12.887Z,15.80
2022-12-01T07:49:39.779Z,16.65
2022-12-01T07:52:06.687Z,16.85
2022-12-01T07:54:33.601Z,16.20
2022-12-01T07:57:00.559Z,16.77
2022-12-01T07:59:27.446Z,16.85
2022-12-01T08:01:54.364Z,14.57
2022-12-01T08:04:21.265Z,16.90
2022-12-01T08:06:48.204Z,17.88
2022-12-01T08:09:15.010Z,17.98
2022-12-01T08:11:41.841Z,18.40
2022-12-01T08:14:08.896Z,17.73
2022-12-01T08:16:35.763Z,17.27
2022-12-01T08:19:02.667Z,16.05
2022-12-01T08:21:29.608Z,17.23
2022-12-01T08:23:57.650Z,17.67
2022-12-01T08:26:25.813Z,15.77
2022-12-01T08:28:52.698Z,17.25
2022-12-01T08:31:26.098Z,16.90
2022-12-01T08:33:53.618Z,16.17
2022-12-01T08:36:21.490Z,16.42
2022-12-01T08:38:50.724Z,16.50
2022-12-01T08:41:18.373Z,16.40
2022-12-01T08:44:01.914Z,16.48
2022-12-01T08:46:32.995Z,17.80
2022-12-01T08:49:00.385Z,16.95
2022-12-01T08:51:27.594Z,16.65
2022-12-01T08:53:56.599Z,15.23
2022-12-01T08:56:27.449Z,17.25
2022-12-01T08:58:54.918Z,16.60
2022-12-01T09:01:22.418Z,15.75
2022-12-01T09:03:49.347Z,15.32
2022-12-01T09:06:20.791Z,16.25
2022-12-01T09:08:48.165Z,15.85
2022-12-01T09:11:19.164Z,15.63
2022-12-01T09:13:54.291Z,15.45
2022-12-01T09:16:22.055Z,14.95
2022-12-01T09:18:49.064Z,14.90
2022-12-01T09:21:18.671Z,16.02
2022-12-01T09:23:45.914Z,16.35
2022-12-01T09:26:18.087Z,15.35
2022-12-01T09:28:46.176Z,15.93
2022-12-01T09:31:14.198Z,14.52
2022-12-01T09:33:41.254Z,15.95
2022-12-01T09:36:08.953Z,14.75
2022-12-01T09:38:37.592Z,15.68
2022-12-01T09:41:42.764Z,15.45
2022-12-01T09:44:17.182Z,16.65
2022-12-01T09:46:54.618Z,15.13
2022-12-01T09:49:35.961Z,17.20
2022-12-01T09:52:03.110Z,16.20
2022-12-01T09:54:29.996Z,17.27
2022-12-01T09:56:59.639Z,16.33
2022-12-01T09:59:41.688Z,16.55
2022-12-01T10:02:39.399Z,15.85
2022-12-01T10:05:12.563Z,17.17
2022-12-01T10:08:00.055Z,16.25
2022-12-01T10:10:43.784Z,16.00
2022-12-01T10:13:19.207Z,17.63
2022-12-01T10:15:54.905Z,16.30
2022-12-01T10:18:40.497Z,16.23
2022-12-01T10:21:43.807Z,15.95
2022-12-01T10:24:23.302Z,15.40
2022-12-01T10:27:24.846Z,16.48
2022-12-01T10:30:15.652Z,16.40
2022-12-01T10:33:09.263Z,15.85
2022-12-01T10:35:38.950Z,15.07
2022-12-01T10:38:13.326Z,16.02
2022-12-01T10:40:41.635Z,14.85
2022-12-01T10:43:10.695Z,16.73
2022-12-01T10:45:43.972Z,16.75
2022-12-01T10:48:10.902Z,15.43
2022-12-01T10:50:37.983Z,15.50
2022-12-01T10:53:05.201Z,16.52
2022-12-01T10:55:42.057Z,15.77
2022-12-01T10:58:18.924Z,14.77
2022-12-01T11:01:00.058Z,15.43
2022-12-01T11:03:34.766Z,16.27
2022-12-01T11:06:04.490Z,16.27
2022-12-01T11:08:45.702Z,14.93
2022-12-01T11:11:40.610Z,14.45
2022-12-01T11:14:20.643Z,14.23
2022-12-01T11:16:50.299Z,15.35
2022-12-01T11:19:34.724Z,15.50
2022-12-01T11:22:18.331Z,14.38
2022-12-01T11:24:53.145Z,15.45
2022-12-01T11:27:29.579Z,14.38
2022-12-01T11:30:00.465Z,13.70
2022-12-01T11:32:30.378Z,14.07
2022-12-01T11:35:00.545Z,13.60
2022-12-01T11:37:39.086Z,13.90
2022-12-01T11:40:24.932Z,13.20
2022-12-01T11:43:01.686Z,14.45
2022-12-01T11:45:37.075Z,13.23
2022-12-01T11:48:25.772Z,13.45
2022-12-01T11:51:24.169Z,12.88
2022-12-01T11:54:13.790Z,12.80
2022-12-01T11:56:41.846Z,12.80
2022-12-01T11:59:29.452Z,12.73
2022-12-01T12:02:11.354Z,12.05
2022-12-01T12:04:53.394Z,12.50
2022-12-01T12:07:26.125Z,12.43
2022-12-01T12:10:23.735Z,12.27
2022-12-01T12:13:29.410Z,11.43
2022-12-01T12:16:05.008Z,11.48
2022-12-01T12:18:45.386Z,11.23
2022-12-01T12:21:18.107Z,12.02
2022-12-01T12:23:54.518Z,11.15
2022-12-01T12:26:27.140Z,11.02
2022-12-01T12:29:13.982Z,11.18
2022-12-01T12:32:04.657Z,13.02
2022-12-01T12:34:54.116Z,11.98
2022-12-01T12:37:44.223Z,12.13
2022-12-01T12:40:28.319Z,12.57
2022-12-01T12:43:09.727Z,11.50
2022-12-01T12:46:07.499Z,12.43
2022-12-01T12:49:18.074Z,12.70
2022-12-01T12:51:45.432Z,12.15
2022-12-01T12:54:12.372Z,11.70
2022-12-01T12:56:44.718Z,12.35
2022-12-01T12:59:47.746Z,12.15
2022-12-01T13:02:23.224Z,11.88
2022-12-01T13:04:52.882Z,12.13
2022-12-01T13:07:30.893Z,12.35
2022-12-01T13:10:35.834Z,12.70
2022-12-01T13:13:34.078Z,12.02
2022-12-01T13:16:03.629Z,11.40
2022-12-01T13:18:34.030Z,13.02
2022-12-01T13:21:04.000Z,11.82
2022-12-01T13:23:32.516Z,13.15
2022-12-01T13:26:03.813Z,12.05
2022-12-01T13:28:40.739Z,12.48
2022-12-01T13:31:13.895Z,11.95
2022-12-01T13:34:00.560Z,12.93
2022-12-01T13:39:20.535Z,11.07
2022-12-01T13:41:58.683Z,12.95
2022-12-01T13:44:32.869Z,11.02
2022-12-01T13:47:15.713Z,11.52
2022-12-01T13:49:47.910Z,10.55
2022-12-01T13:52:25.826Z,10.98
2022-12-01T13:55:07.682Z,10.60
2022-12-01T13:57:36.074Z,9.18
2022-12-01T14:00:23.680Z,10.73
2022-12-01T14:03:13.124Z,11.02
2022-12-01T14:05:40.046Z,10.15
2022-12-01T14:08:37.749Z,9.75
2022-12-01T14:11:21.439Z,9.55
2022-12-01T14:14:09.109Z,10.68
2022-12-01T14:16:59.063Z,11.55
2022-12-01T14:19:34.910Z,11.77
2022-12-01T14:22:02.648Z,10.85
2022-12-01T14:24:38.153Z,11.55
2022-12-01T14:27:06.791Z,11.27
2022-12-01T14:29:38.790Z,11.35
2022-12-01T14:32:09.086Z,11.15
2022-12-01T14:34:39.688Z,11.02
2022-12-01T14:37:20.185Z,11.73
2022-12-01T14:39:56.570Z,10.73
2022-12-01T14:42:57.776Z,11.48
2022-12-01T14:45:42.758Z,11.95
2022-12-01T14:48:16.817Z,9.88
2022-12-01T14:50:53.596Z,9.52
2022-12-01T14:53:27.257Z,10.48
2022-12-01T14:56:08.378Z,9.98
2022-12-01T14:58:35.289Z,9.40
2022-12-01T15:01:11.976Z,9.82
2022-12-01T15:03:43.814Z,9.40
2022-12-01T15:06:16.000Z,10.82
2022-12-01T15:08:53.411Z,11.05
2022-12-01T15:11:30.293Z,10.20
2022-12-01T15:13:57.949Z,10.27
2022-12-01T15:16:28.982Z,11.18
2022-12-01T15:18:56.530Z,10.80
2022-12-01T15:21:30.460Z,11.25
2022-12-01T15:24:06.098Z,10.23
2022-12-01T15:26:35.734Z,11.50
2022-12-01T15:29:15.876Z,10.40
2022-12-01T15:31:48.510Z,10.07
2022-12-01T15:34:23.661Z,10.93
2022-12-01T15:36:52.781Z,9.98
2022-12-01T15:39:26.112Z,9.85
2022-12-01T15:41:54.341Z,11.35
2022-12-01T15:44:30.578Z,10.40
2022-12-01T15:46:57.717Z,10.20
2022-12-01T15:49:29.326Z,10.65
2022-12-01T15:52:10.294Z,10.40
2022-12-01T15:54:38.341Z,11.13
2022-12-01T15:57:06.714Z,11.23
2022-12-01T15:59:41.991Z,10.48
2022-12-01T16:02:29.229Z,11.05
2022-12-01T16:05:04.445Z,10.63
2022-12-01T16:08:04.615Z,10.68
2022-12-01T16:10:39.022Z,12.05
2022-12-01T16:13:59.799Z,10.70
2022-12-01T16:16:47.126Z,12.02
2022-12-01T16:19:16.934Z,11.27
2022-12-01T16:22:05.123Z,12.35
2022-12-01T16:24:35.942Z,11.77
2022-12-01T16:27:06.030Z,11.60
2022-12-01T16:29:57.319Z,13.25
2022-12-01T16:32:44.531Z,11.43
2022-12-01T16:35:30.549Z,12.75
2022-12-01T16:37:58.504Z,12.30
2022-12-01T16:40:26.085Z,13.05
2022-12-01T16:42:53.001Z,13.25
2022-12-01T16:45:20.401Z,12.88
2022-12-01T16:47:49.011Z,11.75
2022-12-01T16:50:18.609Z,13.65
2022-12-01T16:52:46.071Z,13.60
2022-12-01T16:55:19.070Z,13.20
2022-12-01T16:57:45.934Z,12.93
2022-12-01T17:00:13.377Z,13.13
2022-12-01T17:02:40.249Z,12.63
2022-12-01T17:05:07.580Z,13.68
2022-12-01T17:07:34.487Z,13.70
2022-12-01T17:10:01.535Z,13.85
2022-12-01T17:12:28.885Z,15.50
2022-12-01T17:14:55.844Z,14.18
2022-12-01T17:17:22.641Z,15.10
2022-12-01T17:19:52.824Z,15.73
2022-12-01T17:22:20.242Z,15.38
2022-12-01T17:24:47.172Z,13.75
2022-12-01T17:27:14.159Z,15.60
2022-12-01T17:29:45.912Z,15.48
2022-12-01T17:32:14.235Z,15.52
2022-12-01T17:34:41.140Z,16.55
2022-12-01T17:37:08.146Z,14.85
2022-12-01T17:39:34.991Z,15.70
2022-12-01T17:42:01.932Z,15.05
2022-12-01T17:44:28.906Z,18.45
2022-12-01T17:46:55.873Z,16.35
2022-12-01T17:49:22.797Z,17.33
2022-12-01T17:51:49.801Z,15.70
2022-12-01T17:54:16.756Z,16.90
2022-12-01T17:56:44.016Z,16.10
2022-12-01T17:59:10.867Z,16.52
2022-12-01T18:01:37.949Z,16.45
2022-12-01T18:04:05.057Z,16.02
2022-12-01T18:06:31.979Z,17.20
2022-12-01T18:09:00.581Z,15.32
2022-12-01T18:11:27.998Z,16.08
2022-12-01T18:13:55.264Z,17.70
2022-12-01T18:16:27.671Z,17.58
2022-12-01T18:18:56.563Z,16.45
2022-12-01T18:21:24.494Z,16.25
2022-12-01T18:23:56.727Z,16.75
2022-12-01T18:26:24.420Z,15.73
2022-12-01T18:29:06.360Z,17.05
2022-12-01T18:31:35.155Z,15.48
2022-12-01T18:34:03.589Z,15.88
2022-12-01T18:36:33.284Z,16.63
2022-12-01T18:39:01.618Z,15.65
2022-12-01T18:41:28.847Z,16.63
2022-12-01T18:43:55.713Z,16.45
2022-12-01T18:46:23.080Z,16.42
2022-12-01T18:48:52.843Z,15.63
2022-12-01T18:51:21.218Z,17.15
2022-12-01T18:53:48.203Z,15.60
2022-12-01T18:56:15.683Z,17.27
2022-12-01T18:58:42.872Z,16.38
2022-12-01T19:01:27.437Z,17.98
2022-12-01T19:03:55.728Z,17.70
2022-12-01T19:06:23.003Z,16.98
2022-12-01T19:08:50.753Z,17.02
2022-12-01T19:11:18.121Z,17.95
2022-12-01T19:13:45.496Z,16.77
2022-12-01T19:16:15.259Z,18.73
2022-12-01T19:18:43.302Z,17.92
2022-12-01T19:21:12.548Z,16.88
2022-12-01T19:23:40.860Z,18.13
2022-12-01T19:26:11.361Z,16.83
2022-12-01T19:28:38.624Z,18.80
2022-12-01T19:31:11.239Z,17.00
2022-12-01T19:33:38.526Z,18.42
2022-12-01T19:36:11.452Z,17.13
2022-12-01T19:38:39.188Z,18.88
2022-12-01T19:41:07.248Z,17.48
2022-12-01T19:43:35.343Z,18.95
2022-12-01T19:46:10.464Z,17.80
2022-12-01T19:48:37.467Z,18.45
2022-12-01T19:51:05.346Z,19.33
2022-12-01T19:53:34.105Z,19.02
2022-12-01T19:56:03.039Z,19.23
2022-12-01T19:58:33.270Z,20.02
2022-12-01T20:01:05.300Z,18.88
2022-12-01T20:03:32.580Z,20.10
2022-12-01T20:06:11.527Z,19.70
2022-12-01T20:08:39.339Z,19.05
2022-12-01T20:11:07.118Z,20.05
2022-12-01T20:13:37.790Z,20.27
2022-12-01T20:16:10.348Z,20.15
2022-12-01T20:18:38.058Z,19.55
2022-12-01T20:21:17.371Z,19.70
2022-12-01T20:23:49.340Z,21.05
2022-12-01T20:26:18.329Z,20.00
2022-12-01T20:28:47.432Z,20.58
2022-12-01T20:31:20.939Z,19.02
2022-12-01T20:33:48.409Z,19.83
2022-12-01T20:36:15.681Z,19.73
2022-12-01T20:38:42.692Z,19.88
2022-12-01T20:41:10.550Z,21.42
2022-12-01T20:43:37.645Z,21.52
2022-12-01T20:46:05.176Z,19.40
2022-12-01T20:48:32.895Z,20.25
2022-12-01T20:51:01.195Z,20.77
2022-12-01T20:53:28.461Z,21.13
2022-12-01T20:55:55.910Z,20.92
2022-12-01T20:58:23.284Z,21.48
2022-12-01T21:00:50.478Z,20.98
2022-12-01T21:03:17.331Z,19.98
2022-12-01T21:05:44.631Z,22.48
2022-12-01T21:08:13.232Z,20.45
2022-12-01T21:10:42.601Z,20.83
2022-12-01T21:13:38.912Z,20.95
2022-12-01T21:16:14.051Z,25.25
2022-12-01T21:19:01.129Z,28.25
2022-12-01T21:21:30.732Z,28.00
2022-12-01T21:24:22.389Z,25.88
2022-12-01T21:27:15.815Z,25.55
2022-12-01T21:29:50.212Z,25.90
2022-12-01T21:32:31.407Z,26.35
2022-12-01T21:35:08.150Z,26.02
2022-12-01T21:37:35.154Z,24.60
2022-12-01T21:40:02.183Z,25.83
2022-12-01T21:42:31.765Z,25.42
2022-12-01T21:44:58.712Z,26.92
2022-12-01T21:47:30.697Z,25.70
2022-12-01T21:49:59.279Z,25.75
2022-12-01T21:52:33.223Z,24.48
2022-12-01T21:55:23.018Z,25.45
2022-12-01T21:57:51.943Z,25.05
2022-12-01T22:00:35.021Z,24.85
2022-12-01T22:03:25.974Z,24.42
2022-12-01T22:06:29.367Z,24.88
2022-12-01T22:09:20.262Z,25.23
2022-12-01T22:11:53.909Z,23.42
2022-12-01T22:14:27.833Z,24.17
2022-12-01T22:16:56.446Z,25.17
2022-12-01T22:19:35.355Z,24.85
2022-12-01T22:22:11.049Z,24.65
2022-12-01T22:24:48.771Z,23.50
2022-12-01T22:27:29.366Z,24.30
2022-12-01T22:30:02.005Z,23.73
2022-12-01T22:32:45.794Z,23.60
2022-12-01T22:35:31.636Z,24.63
2022-12-01T22:38:06.143Z,23.75
2022-12-01T22:40:38.967Z,23.88
2022-12-01T22:43:20.121Z,23.60
2022-12-01T22:45:48.062Z,24.17
2022-12-01T22:48:37.685Z,23.17
2022-12-01T22:51:13.890Z,23.55
2022-12-01T22:53:42.164Z,24.42
2022-12-01T22:56:27.844Z,22.65
2022-12-01T22:58:56.262Z,21.08
2022-12-01T23:01:27.425Z,23.98
2022-12-01T23:04:18.944Z,24.58
2022-12-01T23:06:54.349Z,23.33
2022-12-01T23:09:23.568Z,25.25
2022-12-01T23:12:01.877Z,23.20
2022-12-01T23:14:29.094Z,24.50
2022-12-01T23:17:05.380Z,23.08
2022-12-01T23:19:34.024Z,23.20
2022-12-01T23:22:01.400Z,22.95
2022-12-01T23:24:33.520Z,23.45
2022-12-01T23:27:01.017Z,22.65
2022-12-01T23:29:29.232Z,23.95
2022-12-01T23:31:56.127Z,23.95
2022-12-01T23:34:23.134Z,23.02
2022-12-01T23:36:50.830Z,22.45
2022-12-01T23:39:21.895Z,23.30
2022-12-01T23:41:51.142Z,24.30
2022-12-01T23:44:26.439Z,23.83
2022-12-01T23:46:56.763Z,22.20
2022-12-01T23:49:29.545Z,24.08
2022-12-01T23:51:59.577Z,22.05
2022-12-01T23:54:32.174Z,22.58
2022-12-01T23:57:03.639Z,23.63
2022-12-01T23:59:31.748Z,22.40
